createdAt,value
2019-01-26T00:02:14.344Z,10.37
2019-01-26T00:05:19.670Z,10.70
2019-01-26T00:08:24.879Z,10.50
2019-01-26T00:11:32.616Z,10.70
2019-01-26T00:14:38.010Z,10.10
2019-01-26T00:17:43.309Z,9.77
2019-01-26T00:20:48.653Z,9.90
2019-01-26T00:23:55.012Z,9.10
2019-01-26T00:27:00.289Z,8.90
2019-01-26T00:30:06.910Z,9.73
2019-01-26T00:33:12.150Z,9.20
2019-01-26T00:36:17.460Z,10.53
2019-01-26T00:39:22.677Z,9.63
2019-01-26T00:42:27.952Z,9.93
2019-01-26T00:45:33.244Z,10.30
2019-01-26T00:48:38.617Z,10.10
2019-01-26T00:51:43.929Z,9.73
2019-01-26T00:54:49.271Z,10.43
2019-01-26T00:57:56.485Z,9.63
2019-01-26T01:01:01.608Z,10.80
2019-01-26T01:04:08.285Z,10.10
2019-01-26T01:07:13.604Z,10.83
2019-01-26T01:10:19.258Z,10.73
2019-01-26T01:13:24.672Z,10.27
2019-01-26T01:16:35.868Z,10.90
2019-01-26T01:19:37.032Z,10.50
2019-01-26T01:22:42.393Z,10.13
2019-01-26T01:25:47.803Z,9.40
2019-01-26T01:28:53.244Z,10.73
2019-01-26T01:31:58.579Z,11.30
2019-01-26T01:35:04.124Z,11.13
2019-01-26T01:38:09.378Z,10.03
2019-01-26T01:41:14.657Z,10.30
2019-01-26T01:44:19.930Z,9.73
2019-01-26T01:47:25.228Z,9.87
2019-01-26T01:50:30.532Z,10.30
2019-01-26T01:53:37.039Z,9.33
2019-01-26T01:56:42.329Z,9.60
2019-01-26T01:59:47.619Z,10.00
2019-01-26T02:02:52.957Z,9.70
2019-01-26T02:05:59.777Z,9.33
2019-01-26T02:09:11.267Z,9.50
2019-01-26T02:12:16.510Z,9.80
2019-01-26T02:15:21.889Z,9.50
2019-01-26T02:18:27.152Z,9.47
2019-01-26T02:21:32.448Z,7.57
2019-01-26T02:24:37.696Z,8.60
2019-01-26T02:27:43.207Z,8.10
2019-01-26T02:30:48.491Z,7.33
2019-01-26T02:33:53.777Z,7.70
2019-01-26T02:36:59.074Z,9.00
2019-01-26T02:40:06.657Z,7.70
2019-01-26T02:43:13.159Z,8.30
2019-01-26T02:46:18.479Z,7.93
2019-01-26T02:49:23.781Z,7.90
2019-01-26T02:52:29.192Z,8.27
2019-01-26T02:55:34.518Z,7.60
2019-01-26T02:58:39.912Z,8.63
2019-01-26T03:01:45.193Z,8.20
2019-01-26T03:04:50.486Z,8.07
2019-01-26T03:07:55.781Z,8.77
2019-01-26T03:11:01.081Z,7.07
2019-01-26T03:14:06.406Z,7.77
2019-01-26T03:17:11.729Z,8.10
2019-01-26T03:20:17.345Z,9.40
2019-01-26T03:23:22.601Z,8.57
2019-01-26T03:26:27.867Z,7.63
2019-01-26T03:29:33.145Z,7.43
2019-01-26T03:32:38.385Z,6.47
2019-01-26T03:35:43.704Z,7.13
2019-01-26T03:38:49.003Z,6.93
2019-01-26T03:41:54.267Z,6.90
2019-01-26T03:44:59.552Z,6.63
2019-01-26T03:48:04.922Z,6.30
2019-01-26T03:51:10.209Z,5.50
2019-01-26T03:54:15.623Z,6.00
2019-01-26T03:57:20.879Z,5.90
2019-01-26T04:00:27.384Z,6.17
2019-01-26T04:03:32.663Z,5.90
2019-01-26T04:06:37.904Z,5.47
2019-01-26T04:09:43.178Z,7.00
2019-01-26T04:12:48.429Z,7.10
2019-01-26T04:15:53.728Z,6.67
2019-01-26T04:18:59.148Z,6.97
2019-01-26T04:22:04.407Z,7.17
2019-01-26T04:25:09.648Z,6.00
2019-01-26T04:28:15.970Z,6.70
2019-01-26T04:31:21.286Z,6.07
2019-01-26T04:34:26.583Z,5.93
2019-01-26T04:37:31.835Z,7.40
2019-01-26T04:40:37.033Z,6.83
2019-01-26T04:43:42.366Z,7.10
2019-01-26T04:46:47.708Z,6.00
2019-01-26T04:49:53.011Z,6.80
2019-01-26T04:52:59.730Z,6.17
2019-01-26T04:56:05.941Z,6.37
2019-01-26T04:59:11.238Z,7.70
2019-01-26T05:02:16.508Z,7.00
2019-01-26T05:05:21.756Z,7.30
2019-01-26T05:08:27.089Z,7.63
2019-01-26T05:11:32.330Z,8.00
2019-01-26T05:14:37.621Z,7.57
2019-01-26T05:17:43.032Z,7.97
2019-01-26T05:20:48.300Z,7.57
2019-01-26T05:23:53.592Z,8.03
2019-01-26T05:26:58.814Z,8.20
2019-01-26T05:30:04.843Z,8.17
2019-01-26T05:33:10.154Z,8.77
2019-01-26T05:36:15.503Z,8.23
2019-01-26T05:39:20.855Z,8.80
2019-01-26T05:42:26.111Z,8.57
2019-01-26T05:45:31.383Z,8.27
2019-01-26T05:48:36.633Z,8.97
2019-01-26T05:51:41.982Z,8.80
2019-01-26T05:54:47.226Z,9.10
2019-01-26T05:57:52.597Z,9.20
2019-01-26T06:00:57.927Z,8.50
2019-01-26T06:04:03.268Z,8.53
2019-01-26T06:07:08.573Z,8.17
2019-01-26T06:10:14.337Z,8.53
2019-01-26T06:13:19.544Z,8.90
2019-01-26T06:16:24.812Z,8.80
2019-01-26T06:19:30.138Z,10.07
2019-01-26T06:22:35.417Z,9.57
2019-01-26T06:25:40.655Z,8.40
2019-01-26T06:28:46.011Z,8.90
2019-01-26T06:31:51.230Z,8.80
2019-01-26T06:34:56.459Z,8.80
2019-01-26T06:38:01.702Z,8.57
2019-01-26T06:41:07.001Z,8.40
2019-01-26T06:44:12.248Z,8.93
2019-01-26T06:47:17.507Z,7.63
2019-01-26T06:50:26.430Z,9.43
2019-01-26T06:53:31.788Z,8.70
2019-01-26T06:56:37.217Z,8.90
2019-01-26T06:59:42.474Z,8.93
2019-01-26T07:02:47.778Z,9.03
2019-01-26T07:06:10.016Z,8.70
2019-01-26T07:09:15.292Z,9.63
2019-01-26T07:12:20.661Z,9.20
2019-01-26T07:15:25.979Z,9.10
2019-01-26T07:18:31.252Z,9.47
2019-01-26T07:21:36.543Z,8.60
2019-01-26T07:24:42.928Z,9.73
2019-01-26T07:27:48.236Z,8.70
2019-01-26T07:30:53.499Z,9.67
2019-01-26T07:33:58.866Z,10.23
2019-01-26T07:37:04.217Z,9.20
2019-01-26T07:40:13.519Z,10.10
2019-01-26T07:43:18.813Z,10.10
2019-01-26T07:46:24.107Z,10.67
2019-01-26T07:49:29.438Z,9.80
2019-01-26T07:52:34.781Z,9.93
2019-01-26T07:55:40.053Z,9.27
2019-01-26T07:58:45.312Z,11.17
2019-01-26T08:01:50.538Z,10.40
2019-01-26T08:04:55.860Z,10.07
2019-01-26T08:08:01.166Z,9.87
2019-01-26T08:11:06.543Z,10.80
2019-01-26T08:14:11.862Z,10.40
2019-01-26T08:17:17.167Z,10.03
2019-01-26T08:20:23.012Z,9.03
2019-01-26T08:23:28.383Z,10.90
2019-01-26T08:26:33.652Z,9.57
2019-01-26T08:29:39.030Z,8.30
2019-01-26T08:32:44.455Z,9.17
2019-01-26T08:35:50.019Z,8.40
2019-01-26T08:38:55.360Z,8.53
2019-01-26T08:42:00.724Z,7.50
2019-01-26T08:45:07.602Z,7.83
2019-01-26T08:48:12.958Z,7.60
2019-01-26T08:51:18.192Z,7.53
2019-01-26T08:54:24.128Z,8.33
2019-01-26T08:57:29.530Z,8.60
2019-01-26T09:00:34.877Z,8.10
2019-01-26T09:03:50.855Z,7.40
2019-01-26T09:06:59.966Z,7.97
2019-01-26T09:10:05.661Z,7.47
2019-01-26T09:13:10.991Z,7.80
2019-01-26T09:16:16.504Z,7.97
2019-01-26T09:19:21.860Z,7.67
2019-01-26T09:22:27.161Z,8.03
2019-01-26T09:25:32.442Z,8.40
2019-01-26T09:28:37.730Z,8.13
2019-01-26T09:31:42.995Z,7.70
2019-01-26T09:34:48.247Z,8.60
2019-01-26T09:37:53.632Z,7.80
2019-01-26T09:40:58.902Z,7.67
2019-01-26T09:44:09.476Z,7.40
2019-01-26T09:47:14.856Z,6.83
2019-01-26T09:50:20.693Z,7.70
2019-01-26T09:53:26.080Z,7.77
2019-01-26T09:56:31.453Z,8.00
2019-01-26T09:59:36.755Z,7.70
2019-01-26T10:02:42.105Z,8.10
2019-01-26T10:05:47.411Z,8.20
2019-01-26T10:08:52.677Z,8.57
2019-01-26T10:11:58.911Z,7.83
2019-01-26T10:15:06.116Z,8.60
2019-01-26T10:18:11.392Z,7.60
2019-01-26T10:21:16.620Z,7.40
2019-01-26T10:24:21.903Z,7.80
2019-01-26T10:27:27.136Z,7.10
2019-01-26T10:30:59.231Z,7.83
2019-01-26T10:34:04.715Z,7.03
2019-01-26T10:37:16.440Z,7.60
2019-01-26T10:40:46.400Z,7.27
2019-01-26T10:43:52.681Z,6.43
2019-01-26T10:46:58.014Z,6.50
2019-01-26T10:50:03.350Z,5.93
2019-01-26T10:53:08.668Z,6.53
2019-01-26T10:56:13.967Z,8.03
2019-01-26T10:59:19.232Z,7.70
2019-01-26T11:02:24.430Z,8.03
2019-01-26T11:05:29.840Z,8.90
2019-01-26T11:08:35.096Z,8.80
2019-01-26T11:11:40.444Z,9.17
2019-01-26T11:14:45.776Z,9.27
2019-01-26T11:17:51.072Z,8.00
2019-01-26T11:20:56.394Z,8.20
2019-01-26T11:24:01.648Z,8.10
2019-01-26T11:27:07.096Z,7.67
2019-01-26T11:30:12.466Z,8.30
2019-01-26T11:33:17.701Z,8.40
2019-01-26T11:36:22.995Z,8.73
2019-01-26T11:39:28.266Z,7.97
2019-01-26T11:42:33.852Z,9.40
2019-01-26T11:46:04.309Z,8.07
2019-01-26T11:49:15.061Z,8.90
2019-01-26T11:52:16.655Z,7.63
2019-01-26T11:55:32.074Z,7.40
2019-01-26T11:58:37.400Z,7.60
2019-01-26T12:01:47.647Z,7.00
2019-01-26T12:05:06.501Z,6.10
2019-01-26T12:08:11.766Z,5.80
2019-01-26T12:11:17.186Z,6.13
2019-01-26T12:14:22.676Z,5.73
2019-01-26T12:17:27.976Z,6.50
2019-01-26T12:20:33.346Z,5.40
2019-01-26T12:23:38.581Z,7.20
2019-01-26T12:26:45.156Z,7.07
2019-01-26T12:29:50.490Z,10.97
2019-01-26T12:32:55.771Z,7.93
2019-01-26T12:36:01.081Z,8.90
2019-01-26T12:39:10.145Z,8.37
2019-01-26T12:42:15.462Z,7.37
2019-01-26T12:45:21.988Z,6.50
2019-01-26T12:48:27.282Z,6.70
2019-01-26T12:51:32.585Z,6.13
2019-01-26T12:54:37.919Z,10.97
2019-01-26T12:57:43.162Z,8.50
2019-01-26T13:00:48.454Z,10.60
2019-01-26T13:03:54.266Z,9.40
2019-01-26T13:06:59.631Z,8.30
2019-01-26T13:10:06.701Z,7.50
2019-01-26T13:13:12.195Z,8.63
2019-01-26T13:16:17.546Z,8.40
2019-01-26T13:19:23.027Z,8.50
2019-01-26T13:22:28.318Z,8.73
2019-01-26T13:25:33.870Z,8.43
2019-01-26T13:28:39.157Z,8.10
2019-01-26T13:31:44.407Z,8.07
2019-01-26T13:34:49.789Z,8.70
2019-01-26T13:37:55.036Z,8.97
2019-01-26T13:41:00.336Z,10.50
2019-01-26T13:44:05.751Z,9.10
2019-01-26T13:47:11.006Z,7.80
2019-01-26T13:50:16.328Z,9.90
2019-01-26T13:53:21.589Z,10.47
2019-01-26T13:56:26.892Z,10.70
2019-01-26T13:59:33.129Z,9.53
2019-01-26T14:02:38.351Z,9.97
2019-01-26T14:05:43.731Z,11.80
2019-01-26T14:08:48.979Z,12.57
2019-01-26T14:11:54.262Z,11.93
2019-01-26T14:14:59.502Z,9.93
2019-01-26T14:18:05.606Z,10.90
2019-01-26T14:21:10.871Z,10.40
2019-01-26T14:24:16.316Z,9.60
2019-01-26T14:27:21.650Z,10.13
2019-01-26T14:30:54.097Z,9.23
2019-01-26T14:34:00.049Z,9.10
2019-01-26T14:37:05.602Z,9.23
2019-01-26T14:40:11.431Z,11.93
2019-01-26T14:43:16.704Z,9.90
2019-01-26T14:46:22.005Z,12.40
2019-01-26T14:49:28.301Z,9.73
2019-01-26T14:52:33.655Z,11.87
2019-01-26T14:55:38.930Z,10.43
2019-01-26T14:58:44.206Z,12.10
2019-01-26T15:01:49.541Z,10.27
2019-01-26T15:04:54.899Z,11.33
2019-01-26T15:08:01.939Z,10.83
2019-01-26T15:11:07.261Z,9.40
2019-01-26T15:14:12.506Z,10.30
2019-01-26T15:17:17.822Z,11.87
2019-01-26T15:20:31.269Z,12.03
2019-01-26T15:23:36.567Z,11.70
2019-01-26T15:26:41.845Z,12.53
2019-01-26T15:29:47.146Z,15.80
2019-01-26T15:32:52.552Z,13.87
2019-01-26T15:35:57.850Z,15.73
2019-01-26T15:39:04.731Z,15.67
2019-01-26T15:42:10.080Z,15.00
2019-01-26T15:45:18.368Z,15.73
2019-01-26T15:48:23.659Z,15.50
2019-01-26T15:51:28.949Z,15.10
2019-01-26T15:54:34.235Z,14.70
2019-01-26T15:57:39.566Z,16.07
2019-01-26T16:00:46.721Z,17.00
2019-01-26T16:03:51.995Z,17.40
2019-01-26T16:06:57.377Z,15.80
2019-01-26T16:10:02.720Z,15.53
2019-01-26T16:13:08.184Z,16.10
2019-01-26T16:16:13.523Z,16.10
2019-01-26T16:19:18.870Z,16.67
2019-01-26T16:22:24.141Z,15.97
2019-01-26T16:25:29.714Z,16.77
2019-01-26T16:28:35.006Z,17.60
2019-01-26T16:31:40.258Z,18.80
2019-01-26T16:34:45.545Z,18.57
2019-01-26T16:37:50.851Z,23.07
2019-01-26T16:40:56.115Z,18.13
2019-01-26T16:44:01.431Z,18.90
2019-01-26T16:47:06.759Z,20.23
2019-01-26T16:50:15.781Z,19.27
2019-01-26T16:53:21.166Z,19.47
2019-01-26T16:56:26.473Z,20.70
2019-01-26T16:59:31.775Z,21.67
2019-01-26T17:02:37.075Z,22.20
2019-01-26T17:05:42.352Z,21.90
2019-01-26T17:08:47.649Z,24.83
2019-01-26T17:11:52.941Z,24.80
2019-01-26T17:14:58.248Z,24.97
2019-01-26T17:18:03.853Z,24.20
2019-01-26T17:21:09.181Z,23.27
2019-01-26T17:24:14.499Z,24.20
2019-01-26T17:27:19.899Z,25.17
2019-01-26T17:30:27.615Z,26.83
2019-01-26T17:33:33.016Z,24.83
2019-01-26T17:36:38.347Z,26.80
2019-01-26T17:39:43.609Z,25.03
2019-01-26T17:42:48.985Z,24.37
2019-01-26T17:45:55.328Z,26.77
2019-01-26T17:49:00.647Z,25.20
2019-01-26T17:52:05.940Z,24.00
2019-01-26T17:55:11.342Z,24.80
2019-01-26T17:58:16.615Z,24.73
2019-01-26T18:01:21.953Z,25.20
2019-01-26T18:04:27.255Z,25.13
2019-01-26T18:07:32.557Z,24.50
2019-01-26T18:10:37.830Z,25.07
2019-01-26T18:13:43.127Z,23.33
2019-01-26T18:16:48.410Z,24.23
2019-01-26T18:19:55.415Z,21.50
2019-01-26T18:23:01.843Z,21.90
2019-01-26T18:26:07.424Z,20.80
2019-01-26T18:29:12.739Z,29.73
2019-01-26T18:32:18.103Z,22.13
2019-01-26T18:35:23.387Z,19.60
2019-01-26T18:38:30.993Z,20.87
2019-01-26T18:41:36.510Z,20.00
2019-01-26T18:44:41.775Z,22.07
2019-01-26T18:47:47.364Z,20.70
2019-01-26T18:50:56.386Z,18.83
2019-01-26T18:53:59.808Z,18.93
2019-01-26T18:57:05.512Z,18.23
2019-01-26T19:00:15.028Z,19.37
2019-01-26T19:03:41.312Z,18.93
2019-01-26T19:06:46.673Z,16.90
2019-01-26T19:09:51.923Z,17.37
2019-01-26T19:12:57.228Z,17.23
2019-01-26T19:16:02.607Z,17.00
2019-01-26T19:19:07.914Z,16.30
2019-01-26T19:22:13.254Z,16.10
2019-01-26T19:25:18.973Z,16.00
2019-01-26T19:28:26.838Z,16.70
2019-01-26T19:31:33.057Z,14.77
2019-01-26T19:34:38.358Z,17.20
2019-01-26T19:37:43.678Z,15.27
2019-01-26T19:40:48.993Z,14.60
2019-01-26T19:43:54.303Z,14.63
2019-01-26T19:46:59.599Z,16.10
2019-01-26T19:50:05.818Z,16.03
2019-01-26T19:53:11.119Z,15.03
2019-01-26T19:56:16.417Z,15.67
2019-01-26T19:59:21.755Z,16.27
2019-01-26T20:02:26.963Z,16.07
2019-01-26T20:05:32.287Z,14.87
2019-01-26T20:08:37.559Z,17.07
2019-01-26T20:11:42.862Z,15.23
2019-01-26T20:14:48.213Z,15.00
2019-01-26T20:17:53.509Z,15.70
2019-01-26T20:20:58.868Z,14.77
2019-01-26T20:24:04.284Z,14.33
2019-01-26T20:27:09.614Z,14.70
2019-01-26T20:30:18.336Z,14.27
2019-01-26T20:33:23.695Z,14.40
2019-01-26T20:36:29.065Z,14.40
2019-01-26T20:39:34.296Z,14.93
2019-01-26T20:42:39.658Z,13.60
2019-01-26T20:45:44.918Z,14.00
2019-01-26T20:48:50.237Z,12.60
2019-01-26T20:51:55.517Z,11.70
2019-01-26T20:55:00.839Z,12.50
2019-01-26T20:58:06.219Z,11.33
2019-01-26T21:01:11.533Z,11.20
2019-01-26T21:04:16.772Z,10.60
2019-01-26T21:07:22.039Z,10.30
2019-01-26T21:10:28.994Z,10.90
2019-01-26T21:13:35.405Z,10.93
2019-01-26T21:16:41.573Z,11.17
2019-01-26T21:19:47.171Z,10.30
2019-01-26T21:22:52.512Z,10.00
2019-01-26T21:25:57.842Z,10.53
2019-01-26T21:29:03.127Z,9.80
2019-01-26T21:32:08.448Z,10.03
2019-01-26T21:35:13.729Z,8.97
2019-01-26T21:38:19.003Z,8.67
2019-01-26T21:41:24.302Z,9.50
2019-01-26T21:44:29.613Z,8.33
2019-01-26T21:47:35.118Z,8.07
2019-01-26T21:50:40.457Z,8.57
2019-01-26T21:53:45.807Z,8.00
2019-01-26T21:56:51.133Z,7.60
2019-01-26T21:59:56.442Z,7.73
2019-01-26T22:03:02.411Z,8.03
2019-01-26T22:06:07.717Z,7.67
2019-01-26T22:09:13.073Z,7.80
2019-01-26T22:12:18.338Z,8.10
2019-01-26T22:15:24.184Z,9.83
2019-01-26T22:18:29.489Z,7.80
2019-01-26T22:21:34.850Z,8.40
2019-01-26T22:24:40.335Z,8.37
2019-01-26T22:27:45.842Z,8.07
2019-01-26T22:30:54.111Z,8.67
2019-01-26T22:33:59.540Z,7.80
2019-01-26T22:37:04.897Z,8.20
2019-01-26T22:40:13.438Z,8.50
2019-01-26T22:43:18.702Z,8.30
2019-01-26T22:46:23.968Z,8.00
2019-01-26T22:49:29.263Z,8.93
2019-01-26T22:52:34.502Z,8.27
2019-01-26T22:55:39.793Z,7.47
2019-01-26T22:58:45.114Z,7.67
2019-01-26T23:01:50.507Z,7.50
2019-01-26T23:05:29.370Z,7.40
2019-01-26T23:08:34.902Z,6.83
2019-01-26T23:12:13.876Z,7.53
2019-01-26T23:16:01.047Z,7.20
2019-01-26T23:19:38.274Z,6.67
2019-01-26T23:23:12.588Z,7.30
2019-01-26T23:26:26.597Z,6.90
2019-01-26T23:30:00.283Z,6.03
2019-01-26T23:33:05.999Z,5.30
2019-01-26T23:36:11.404Z,6.30
2019-01-26T23:39:16.768Z,5.20
2019-01-26T23:42:22.207Z,5.70
2019-01-26T23:45:27.484Z,5.37
2019-01-26T23:48:32.858Z,5.00
2019-01-26T23:51:38.362Z,5.10
2019-01-26T23:54:43.697Z,5.80
2019-01-26T23:57:48.973Z,4.60
